sensor_id;sensor_type;location;lat;lon;timestamp;P1;durP1;ratioP1;P2;durP2;ratioP2
21505;SDS011;10914;48.886;9.394;2023-04-29T00:02:05;26.90;;;25.13;;
21505;SDS011;10914;48.886;9.394;2023-04-29T00:04:30;28.88;;;27.25;;
21505;SDS011;10914;48.886;9.394;2023-04-29T00:06:56;28.90;;;27.27;;
21505;SDS011;10914;48.886;9.394;2023-04-29T00:09:21;31.33;;;29.42;;
21505;SDS011;10914;48.886;9.394;2023-04-29T00:11:46;27.88;;;26.35;;
21505;SDS011;10914;48.886;9.394;2023-04-29T00:14:11;33.38;;;31.48;;
21505;SDS011;10914;48.886;9.394;2023-04-29T00:16:37;29.67;;;28.08;;
21505;SDS011;10914;48.886;9.394;2023-04-29T00:19:02;30.13;;;28.20;;
21505;SDS011;10914;48.886;9.394;2023-04-29T00:21:27;32.03;;;30.02;;
21505;SDS011;10914;48.886;9.394;2023-04-29T00:23:52;31.00;;;29.08;;
21505;SDS011;10914;48.886;9.394;2023-04-29T00:26:18;38.30;;;36.00;;
21505;SDS011;10914;48.886;9.394;2023-04-29T00:28:43;30.17;;;28.27;;
21505;SDS011;10914;48.886;9.394;2023-04-29T00:31:08;28.83;;;27.20;;
21505;SDS011;10914;48.886;9.394;2023-04-29T00:33:33;28.13;;;26.42;;
21505;SDS011;10914;48.886;9.394;2023-04-29T00:35:58;28.30;;;26.63;;
21505;SDS011;10914;48.886;9.394;2023-04-29T00:38:24;30.65;;;28.63;;
21505;SDS011;10914;48.886;9.394;2023-04-29T00:40:49;32.42;;;30.23;;
21505;SDS011;10914;48.886;9.394;2023-04-29T00:43:14;32.97;;;30.77;;
21505;SDS011;10914;48.886;9.394;2023-04-29T00:45:40;35.00;;;32.87;;
21505;SDS011;10914;48.886;9.394;2023-04-29T00:48:05;33.08;;;31.17;;
21505;SDS011;10914;48.886;9.394;2023-04-29T00:50:30;30.70;;;28.88;;
21505;SDS011;10914;48.886;9.394;2023-04-29T00:52:56;33.88;;;31.80;;
21505;SDS011;10914;48.886;9.394;2023-04-29T00:55:21;31.92;;;30.15;;
21505;SDS011;10914;48.886;9.394;2023-04-29T00:57:47;34.95;;;32.95;;
21505;SDS011;10914;48.886;9.394;2023-04-29T01:00:16;35.42;;;33.42;;
21505;SDS011;10914;48.886;9.394;2023-04-29T01:02:48;36.08;;;34.03;;
21505;SDS011;10914;48.886;9.394;2023-04-29T01:05:14;37.05;;;34.70;;
21505;SDS011;10914;48.886;9.394;2023-04-29T01:08:03;34.72;;;32.60;;
21505;SDS011;10914;48.886;9.394;2023-04-29T01:10:38;30.67;;;28.88;;
21505;SDS011;10914;48.886;9.394;2023-04-29T01:13:06;33.53;;;31.58;;
21505;SDS011;10914;48.886;9.394;2023-04-29T01:15:34;33.95;;;31.95;;
21505;SDS011;10914;48.886;9.394;2023-04-29T01:18:14;32.13;;;30.23;;
21505;SDS011;10914;48.886;9.394;2023-04-29T01:20:43;31.48;;;29.58;;
21505;SDS011;10914;48.886;9.394;2023-04-29T01:23:09;30.92;;;29.10;;
21505;SDS011;10914;48.886;9.394;2023-04-29T01:25:34;32.38;;;30.27;;
21505;SDS011;10914;48.886;9.394;2023-04-29T01:30:45;32.70;;;30.50;;
21505;SDS011;10914;48.886;9.394;2023-04-29T01:33:36;28.95;;;27.25;;
21505;SDS011;10914;48.886;9.394;2023-04-29T01:38:48;32.53;;;30.60;;
21505;SDS011;10914;48.886;9.394;2023-04-29T01:42:02;33.63;;;31.52;;
21505;SDS011;10914;48.886;9.394;2023-04-29T01:44:02;30.50;;;28.50;;
21505;SDS011;10914;48.886;9.394;2023-04-29T01:46:28;31.98;;;30.08;;
21505;SDS011;10914;48.886;9.394;2023-04-29T01:48:54;28.95;;;27.45;;
21505;SDS011;10914;48.886;9.394;2023-04-29T01:51:19;31.77;;;29.98;;
21505;SDS011;10914;48.886;9.394;2023-04-29T01:53:45;32.03;;;30.13;;
21505;SDS011;10914;48.886;9.394;2023-04-29T01:56:11;33.95;;;31.92;;
21505;SDS011;10914;48.886;9.394;2023-04-29T01:58:36;33.38;;;31.33;;
21505;SDS011;10914;48.886;9.394;2023-04-29T02:01:01;30.67;;;28.90;;
21505;SDS011;10914;48.886;9.394;2023-04-29T02:03:26;31.43;;;29.47;;
21505;SDS011;10914;48.886;9.394;2023-04-29T02:05:51;31.00;;;29.10;;
21505;SDS011;10914;48.886;9.394;2023-04-29T02:08:17;28.93;;;27.23;;
21505;SDS011;10914;48.886;9.394;2023-04-29T02:11:00;31.35;;;29.35;;
21505;SDS011;10914;48.886;9.394;2023-04-29T02:13:26;29.58;;;27.80;;
21505;SDS011;10914;48.886;9.394;2023-04-29T02:15:51;29.77;;;28.08;;
21505;SDS011;10914;48.886;9.394;2023-04-29T02:18:16;28.83;;;27.13;;
21505;SDS011;10914;48.886;9.394;2023-04-29T02:20:41;30.98;;;29.08;;
21505;SDS011;10914;48.886;9.394;2023-04-29T02:23:06;30.23;;;28.42;;
21505;SDS011;10914;48.886;9.394;2023-04-29T02:25:32;30.30;;;28.38;;
21505;SDS011;10914;48.886;9.394;2023-04-29T02:27:57;30.23;;;28.40;;
21505;SDS011;10914;48.886;9.394;2023-04-29T02:30:22;30.40;;;28.40;;
21505;SDS011;10914;48.886;9.394;2023-04-29T02:32:47;28.23;;;26.63;;
21505;SDS011;10914;48.886;9.394;2023-04-29T02:35:12;30.02;;;28.20;;
21505;SDS011;10914;48.886;9.394;2023-04-29T02:37:38;30.98;;;29.17;;
21505;SDS011;10914;48.886;9.394;2023-04-29T02:40:03;30.57;;;28.67;;
21505;SDS011;10914;48.886;9.394;2023-04-29T02:42:30;30.02;;;28.23;;
21505;SDS011;10914;48.886;9.394;2023-04-29T02:44:55;29.48;;;27.67;;
21505;SDS011;10914;48.886;9.394;2023-04-29T02:47:20;34.90;;;32.85;;
21505;SDS011;10914;48.886;9.394;2023-04-29T02:49:45;30.27;;;28.48;;
21505;SDS011;10914;48.886;9.394;2023-04-29T02:52:10;28.63;;;26.93;;
21505;SDS011;10914;48.886;9.394;2023-04-29T02:54:36;30.60;;;28.90;;
21505;SDS011;10914;48.886;9.394;2023-04-29T02:57:02;33.20;;;31.20;;
21505;SDS011;10914;48.886;9.394;2023-04-29T02:59:27;34.60;;;32.50;;
21505;SDS011;10914;48.886;9.394;2023-04-29T03:01:52;35.73;;;33.47;;
21505;SDS011;10914;48.886;9.394;2023-04-29T03:04:18;36.42;;;34.33;;
21505;SDS011;10914;48.886;9.394;2023-04-29T03:06:44;32.55;;;30.60;;
21505;SDS011;10914;48.886;9.394;2023-04-29T03:09:09;35.80;;;33.80;;
21505;SDS011;10914;48.886;9.394;2023-04-29T03:11:34;36.22;;;34.22;;
21505;SDS011;10914;48.886;9.394;2023-04-29T03:13:59;31.75;;;29.75;;
21505;SDS011;10914;48.886;9.394;2023-04-29T03:16:25;32.92;;;30.83;;
21505;SDS011;10914;48.886;9.394;2023-04-29T03:18:52;35.60;;;33.30;;
21505;SDS011;10914;48.886;9.394;2023-04-29T03:21:17;36.40;;;34.20;;
21505;SDS011;10914;48.886;9.394;2023-04-29T03:23:43;44.67;;;41.85;;
21505;SDS011;10914;48.886;9.394;2023-04-29T03:26:08;47.40;;;44.55;;
21505;SDS011;10914;48.886;9.394;2023-04-29T03:28:34;31.85;;;29.95;;
21505;SDS011;10914;48.886;9.394;2023-04-29T03:30:59;32.17;;;30.17;;
21505;SDS011;10914;48.886;9.394;2023-04-29T03:33:24;34.92;;;32.45;;
21505;SDS011;10914;48.886;9.394;2023-04-29T03:35:50;33.90;;;31.47;;
21505;SDS011;10914;48.886;9.394;2023-04-29T03:38:15;33.53;;;31.30;;
21505;SDS011;10914;48.886;9.394;2023-04-29T03:40:40;32.93;;;30.93;;
21505;SDS011;10914;48.886;9.394;2023-04-29T03:43:05;64.10;;;60.00;;
21505;SDS011;10914;48.886;9.394;2023-04-29T03:45:33;37.28;;;34.88;;
21505;SDS011;10914;48.886;9.394;2023-04-29T03:47:58;42.17;;;39.57;;
21505;SDS011;10914;48.886;9.394;2023-04-29T03:50:23;35.85;;;33.78;;
21505;SDS011;10914;48.886;9.394;2023-04-29T03:52:48;37.65;;;35.05;;
21505;SDS011;10914;48.886;9.394;2023-04-29T03:55:13;100.77;;;95.27;;
21505;SDS011;10914;48.886;9.394;2023-04-29T03:57:39;35.55;;;33.35;;
21505;SDS011;10914;48.886;9.394;2023-04-29T04:00:04;33.25;;;31.05;;
21505;SDS011;10914;48.886;9.394;2023-04-29T04:02:30;36.70;;;34.42;;
21505;SDS011;10914;48.886;9.394;2023-04-29T04:04:55;32.13;;;30.13;;
21505;SDS011;10914;48.886;9.394;2023-04-29T04:07:20;33.63;;;31.65;;
21505;SDS011;10914;48.886;9.394;2023-04-29T04:09:45;38.50;;;36.13;;
21505;SDS011;10914;48.886;9.394;2023-04-29T04:12:10;44.65;;;41.97;;
21505;SDS011;10914;48.886;9.394;2023-04-29T04:14:35;42.70;;;39.80;;
21505;SDS011;10914;48.886;9.394;2023-04-29T04:17:00;47.25;;;44.22;;
21505;SDS011;10914;48.886;9.394;2023-04-29T04:19:26;44.85;;;42.35;;
21505;SDS011;10914;48.886;9.394;2023-04-29T04:21:53;56.97;;;53.85;;
21505;SDS011;10914;48.886;9.394;2023-04-29T04:24:18;52.17;;;49.13;;
21505;SDS011;10914;48.886;9.394;2023-04-29T04:26:43;47.45;;;44.53;;
21505;SDS011;10914;48.886;9.394;2023-04-29T04:29:08;46.20;;;43.35;;
21505;SDS011;10914;48.886;9.394;2023-04-29T04:31:33;50.65;;;47.67;;
21505;SDS011;10914;48.886;9.394;2023-04-29T04:33:59;93.03;;;88.13;;
21505;SDS011;10914;48.886;9.394;2023-04-29T04:36:24;51.25;;;48.25;;
21505;SDS011;10914;48.886;9.394;2023-04-29T04:38:49;88.50;;;84.10;;
21505;SDS011;10914;48.886;9.394;2023-04-29T04:41:14;46.45;;;43.85;;
21505;SDS011;10914;48.886;9.394;2023-04-29T04:43:40;64.47;;;60.92;;
21505;SDS011;10914;48.886;9.394;2023-04-29T04:46:12;35.38;;;33.17;;
21505;SDS011;10914;48.886;9.394;2023-04-29T04:48:37;55.28;;;52.33;;
21505;SDS011;10914;48.886;9.394;2023-04-29T04:53:34;56.80;;;53.50;;
21505;SDS011;10914;48.886;9.394;2023-04-29T04:56:02;52.57;;;49.47;;
21505;SDS011;10914;48.886;9.394;2023-04-29T04:58:27;59.55;;;56.15;;
21505;SDS011;10914;48.886;9.394;2023-04-29T05:00:53;50.80;;;48.03;;
21505;SDS011;10914;48.886;9.394;2023-04-29T05:03:18;55.80;;;52.77;;
21505;SDS011;10914;48.886;9.394;2023-04-29T05:05:43;82.95;;;78.93;;
21505;SDS011;10914;48.886;9.394;2023-04-29T05:08:08;45.87;;;43.27;;
21505;SDS011;10914;48.886;9.394;2023-04-29T05:10:36;57.78;;;54.53;;
21505;SDS011;10914;48.886;9.394;2023-04-29T05:13:01;51.65;;;48.80;;
21505;SDS011;10914;48.886;9.394;2023-04-29T05:15:27;61.15;;;57.88;;
21505;SDS011;10914;48.886;9.394;2023-04-29T05:17:52;45.97;;;43.38;;
21505;SDS011;10914;48.886;9.394;2023-04-29T05:20:17;48.08;;;45.55;;
21505;SDS011;10914;48.886;9.394;2023-04-29T05:22:44;46.20;;;43.65;;
21505;SDS011;10914;48.886;9.394;2023-04-29T05:25:09;60.70;;;57.47;;
21505;SDS011;10914;48.886;9.394;2023-04-29T05:27:34;32.25;;;30.42;;
21505;SDS011;10914;48.886;9.394;2023-04-29T05:29:59;36.10;;;33.85;;
21505;SDS011;10914;48.886;9.394;2023-04-29T05:32:25;34.35;;;32.35;;
21505;SDS011;10914;48.886;9.394;2023-04-29T05:34:50;35.08;;;32.97;;
21505;SDS011;10914;48.886;9.394;2023-04-29T05:37:15;33.67;;;31.50;;
21505;SDS011;10914;48.886;9.394;2023-04-29T05:39:40;33.73;;;31.73;;
21505;SDS011;10914;48.886;9.394;2023-04-29T05:42:06;36.55;;;34.50;;
21505;SDS011;10914;48.886;9.394;2023-04-29T05:44:31;37.38;;;34.97;;
21505;SDS011;10914;48.886;9.394;2023-04-29T05:46:56;38.47;;;35.90;;
21505;SDS011;10914;48.886;9.394;2023-04-29T05:49:22;34.88;;;32.70;;
21505;SDS011;10914;48.886;9.394;2023-04-29T05:51:47;37.67;;;35.20;;
21505;SDS011;10914;48.886;9.394;2023-04-29T05:54:13;41.42;;;38.75;;
21505;SDS011;10914;48.886;9.394;2023-04-29T05:56:38;38.53;;;36.15;;
21505;SDS011;10914;48.886;9.394;2023-04-29T05:59:03;38.38;;;35.85;;
21505;SDS011;10914;48.886;9.394;2023-04-29T06:01:28;41.13;;;38.33;;
21505;SDS011;10914;48.886;9.394;2023-04-29T06:03:53;38.95;;;36.55;;
21505;SDS011;10914;48.886;9.394;2023-04-29T06:06:19;39.35;;;36.85;;
21505;SDS011;10914;48.886;9.394;2023-04-29T06:08:44;41.75;;;39.00;;
21505;SDS011;10914;48.886;9.394;2023-04-29T06:11:09;44.88;;;42.08;;
21505;SDS011;10914;48.886;9.394;2023-04-29T06:13:35;38.30;;;35.88;;
21505;SDS011;10914;48.886;9.394;2023-04-29T06:16:00;55.17;;;51.75;;
21505;SDS011;10914;48.886;9.394;2023-04-29T06:18:25;64.05;;;60.00;;
21505;SDS011;10914;48.886;9.394;2023-04-29T06:20:50;98.85;;;93.35;;
21505;SDS011;10914;48.886;9.394;2023-04-29T06:23:15;44.47;;;41.53;;
21505;SDS011;10914;48.886;9.394;2023-04-29T06:25:41;38.25;;;35.70;;
21505;SDS011;10914;48.886;9.394;2023-04-29T06:28:06;47.28;;;44.50;;
21505;SDS011;10914;48.886;9.394;2023-04-29T06:30:32;51.33;;;48.38;;
21505;SDS011;10914;48.886;9.394;2023-04-29T06:32:57;71.00;;;67.00;;
21505;SDS011;10914;48.886;9.394;2023-04-29T06:35:22;54.78;;;51.58;;
21505;SDS011;10914;48.886;9.394;2023-04-29T06:37:48;41.77;;;39.27;;
21505;SDS011;10914;48.886;9.394;2023-04-29T06:40:13;36.85;;;34.55;;
21505;SDS011;10914;48.886;9.394;2023-04-29T06:42:38;31.83;;;29.70;;
21505;SDS011;10914;48.886;9.394;2023-04-29T06:45:03;31.83;;;29.83;;
21505;SDS011;10914;48.886;9.394;2023-04-29T06:47:29;32.08;;;29.88;;
21505;SDS011;10914;48.886;9.394;2023-04-29T06:49:54;31.08;;;29.05;;
21505;SDS011;10914;48.886;9.394;2023-04-29T06:52:20;30.03;;;28.10;;
21505;SDS011;10914;48.886;9.394;2023-04-29T06:54:45;29.73;;;27.83;;
21505;SDS011;10914;48.886;9.394;2023-04-29T06:57:10;34.00;;;32.00;;
21505;SDS011;10914;48.886;9.394;2023-04-29T06:59:36;31.75;;;29.85;;
21505;SDS011;10914;48.886;9.394;2023-04-29T07:02:01;30.47;;;28.67;;
21505;SDS011;10914;48.886;9.394;2023-04-29T07:04:26;31.83;;;30.02;;
21505;SDS011;10914;48.886;9.394;2023-04-29T07:06:51;31.13;;;29.33;;
21505;SDS011;10914;48.886;9.394;2023-04-29T07:09:18;32.00;;;30.20;;
21505;SDS011;10914;48.886;9.394;2023-04-29T07:11:43;33.33;;;31.42;;
21505;SDS011;10914;48.886;9.394;2023-04-29T07:14:08;34.43;;;32.43;;
21505;SDS011;10914;48.886;9.394;2023-04-29T07:16:33;30.33;;;28.63;;
21505;SDS011;10914;48.886;9.394;2023-04-29T07:18:59;31.60;;;29.75;;
21505;SDS011;10914;48.886;9.394;2023-04-29T07:21:25;33.93;;;32.13;;
21505;SDS011;10914;48.886;9.394;2023-04-29T07:23:50;32.42;;;30.73;;
21505;SDS011;10914;48.886;9.394;2023-04-29T07:26:16;30.23;;;28.63;;
21505;SDS011;10914;48.886;9.394;2023-04-29T07:28:41;30.92;;;29.33;;
21505;SDS011;10914;48.886;9.394;2023-04-29T07:31:07;31.92;;;30.23;;
21505;SDS011;10914;48.886;9.394;2023-04-29T07:33:32;32.88;;;31.00;;
21505;SDS011;10914;48.886;9.394;2023-04-29T07:35:57;33.33;;;31.52;;
21505;SDS011;10914;48.886;9.394;2023-04-29T07:38:23;32.78;;;30.98;;
21505;SDS011;10914;48.886;9.394;2023-04-29T07:40:48;32.22;;;30.42;;
21505;SDS011;10914;48.886;9.394;2023-04-29T07:43:13;32.22;;;30.52;;
21505;SDS011;10914;48.886;9.394;2023-04-29T07:45:38;31.13;;;29.50;;
21505;SDS011;10914;48.886;9.394;2023-04-29T07:48:04;31.77;;;30.02;;
21505;SDS011;10914;48.886;9.394;2023-04-29T07:50:29;31.38;;;29.77;;
21505;SDS011;10914;48.886;9.394;2023-04-29T07:52:54;32.25;;;30.50;;
21505;SDS011;10914;48.886;9.394;2023-04-29T07:55:21;31.73;;;29.90;;
21505;SDS011;10914;48.886;9.394;2023-04-29T07:57:46;31.58;;;29.95;;
21505;SDS011;10914;48.886;9.394;2023-04-29T08:00:12;33.25;;;31.20;;
21505;SDS011;10914;48.886;9.394;2023-04-29T08:02:37;31.40;;;29.77;;
21505;SDS011;10914;48.886;9.394;2023-04-29T08:05:03;33.10;;;31.23;;
21505;SDS011;10914;48.886;9.394;2023-04-29T08:07:28;31.73;;;30.10;;
21505;SDS011;10914;48.886;9.394;2023-04-29T08:09:53;33.72;;;31.88;;
21505;SDS011;10914;48.886;9.394;2023-04-29T08:12:18;33.93;;;32.03;;
21505;SDS011;10914;48.886;9.394;2023-04-29T08:14:43;32.10;;;30.33;;
21505;SDS011;10914;48.886;9.394;2023-04-29T08:17:09;33.10;;;31.40;;
21505;SDS011;10914;48.886;9.394;2023-04-29T08:19:34;30.40;;;28.80;;
21505;SDS011;10914;48.886;9.394;2023-04-29T08:21:59;30.17;;;28.27;;
21505;SDS011;10914;48.886;9.394;2023-04-29T08:24:25;28.85;;;27.35;;
21505;SDS011;10914;48.886;9.394;2023-04-29T08:26:50;27.98;;;26.48;;
21505;SDS011;10914;48.886;9.394;2023-04-29T08:29:16;27.38;;;25.88;;
21505;SDS011;10914;48.886;9.394;2023-04-29T08:31:41;26.73;;;25.23;;
21505;SDS011;10914;48.886;9.394;2023-04-29T08:34:06;25.30;;;23.83;;
21505;SDS011;10914;48.886;9.394;2023-04-29T08:36:32;25.48;;;24.08;;
21505;SDS011;10914;48.886;9.394;2023-04-29T08:38:57;25.58;;;24.00;;
21505;SDS011;10914;48.886;9.394;2023-04-29T08:41:22;24.35;;;22.95;;
21505;SDS011;10914;48.886;9.394;2023-04-29T08:43:49;24.17;;;22.77;;
21505;SDS011;10914;48.886;9.394;2023-04-29T08:46:14;24.25;;;22.80;;
21505;SDS011;10914;48.886;9.394;2023-04-29T08:48:40;24.55;;;23.05;;
21505;SDS011;10914;48.886;9.394;2023-04-29T08:51:06;24.85;;;23.48;;
21505;SDS011;10914;48.886;9.394;2023-04-29T08:53:31;28.00;;;26.60;;
21505;SDS011;10914;48.886;9.394;2023-04-29T08:55:57;24.52;;;23.23;;
21505;SDS011;10914;48.886;9.394;2023-04-29T08:58:24;26.25;;;24.75;;
21505;SDS011;10914;48.886;9.394;2023-04-29T09:00:52;24.65;;;23.15;;
21505;SDS011;10914;48.886;9.394;2023-04-29T09:06:12;23.77;;;22.48;;
21505;SDS011;10914;48.886;9.394;2023-04-29T09:08:37;24.80;;;23.45;;
21505;SDS011;10914;48.886;9.394;2023-04-29T09:11:03;24.42;;;23.13;;
21505;SDS011;10914;48.886;9.394;2023-04-29T09:13:30;23.55;;;22.25;;
21505;SDS011;10914;48.886;9.394;2023-04-29T09:15:55;24.50;;;23.10;;
21505;SDS011;10914;48.886;9.394;2023-04-29T09:21:21;24.02;;;22.73;;
21505;SDS011;10914;48.886;9.394;2023-04-29T09:23:47;23.38;;;21.98;;
21505;SDS011;10914;48.886;9.394;2023-04-29T09:26:13;23.45;;;22.17;;
21505;SDS011;10914;48.886;9.394;2023-04-29T09:28:39;23.88;;;22.63;;
21505;SDS011;10914;48.886;9.394;2023-04-29T09:31:07;22.33;;;21.10;;
21505;SDS011;10914;48.886;9.394;2023-04-29T09:39:01;23.35;;;22.05;;
21505;SDS011;10914;48.886;9.394;2023-04-29T09:41:27;22.73;;;21.52;;
21505;SDS011;10914;48.886;9.394;2023-04-29T09:44:01;22.38;;;21.17;;
21505;SDS011;10914;48.886;9.394;2023-04-29T09:46:28;23.20;;;21.90;;
21505;SDS011;10914;48.886;9.394;2023-04-29T09:48:53;23.90;;;22.60;;
21505;SDS011;10914;48.886;9.394;2023-04-29T09:51:18;24.03;;;22.63;;
21505;SDS011;10914;48.886;9.394;2023-04-29T09:53:43;24.40;;;23.10;;
21505;SDS011;10914;48.886;9.394;2023-04-29T09:56:09;24.98;;;23.38;;
21505;SDS011;10914;48.886;9.394;2023-04-29T09:58:34;24.03;;;22.73;;
21505;SDS011;10914;48.886;9.394;2023-04-29T10:01:01;24.40;;;22.98;;
21505;SDS011;10914;48.886;9.394;2023-04-29T10:03:30;25.27;;;23.98;;
21505;SDS011;10914;48.886;9.394;2023-04-29T10:05:57;24.35;;;23.05;;
21505;SDS011;10914;48.886;9.394;2023-04-29T10:08:22;24.55;;;23.25;;
21505;SDS011;10914;48.886;9.394;2023-04-29T10:10:47;23.57;;;22.17;;
21505;SDS011;10914;48.886;9.394;2023-04-29T10:13:13;23.42;;;22.13;;
21505;SDS011;10914;48.886;9.394;2023-04-29T10:15:40;23.97;;;22.60;;
21505;SDS011;10914;48.886;9.394;2023-04-29T10:18:20;23.02;;;21.67;;
21505;SDS011;10914;48.886;9.394;2023-04-29T10:20:46;25.17;;;23.88;;
21505;SDS011;10914;48.886;9.394;2023-04-29T10:23:12;24.80;;;23.50;;
21505;SDS011;10914;48.886;9.394;2023-04-29T10:25:38;23.08;;;21.88;;
21505;SDS011;10914;48.886;9.394;2023-04-29T10:28:03;24.95;;;23.55;;
21505;SDS011;10914;48.886;9.394;2023-04-29T10:30:30;23.98;;;22.48;;
21505;SDS011;10914;48.886;9.394;2023-04-29T10:32:55;24.20;;;22.90;;
21505;SDS011;10914;48.886;9.394;2023-04-29T10:35:22;24.48;;;23.17;;
21505;SDS011;10914;48.886;9.394;2023-04-29T10:37:48;24.05;;;22.75;;
21505;SDS011;10914;48.886;9.394;2023-04-29T10:40:55;25.38;;;24.02;;
21505;SDS011;10914;48.886;9.394;2023-04-29T10:43:01;26.27;;;24.67;;
21505;SDS011;10914;48.886;9.394;2023-04-29T10:45:27;24.00;;;22.60;;
21505;SDS011;10914;48.886;9.394;2023-04-29T10:50:31;26.08;;;24.00;;
21505;SDS011;10914;48.886;9.394;2023-04-29T10:52:56;26.13;;;24.52;;
21505;SDS011;10914;48.886;9.394;2023-04-29T10:55:22;25.85;;;24.23;;
21505;SDS011;10914;48.886;9.394;2023-04-29T10:57:48;25.35;;;23.75;;
21505;SDS011;10914;48.886;9.394;2023-04-29T11:00:21;25.92;;;24.23;;
21505;SDS011;10914;48.886;9.394;2023-04-29T11:02:47;25.65;;;24.05;;
21505;SDS011;10914;48.886;9.394;2023-04-29T11:05:12;25.08;;;23.67;;
21505;SDS011;10914;48.886;9.394;2023-04-29T11:07:37;25.05;;;23.60;;
21505;SDS011;10914;48.886;9.394;2023-04-29T11:10:03;25.33;;;23.83;;
21505;SDS011;10914;48.886;9.394;2023-04-29T11:12:28;24.00;;;22.70;;
21505;SDS011;10914;48.886;9.394;2023-04-29T11:14:53;24.67;;;23.30;;
21505;SDS011;10914;48.886;9.394;2023-04-29T11:17:27;24.02;;;22.73;;
21505;SDS011;10914;48.886;9.394;2023-04-29T11:19:59;24.58;;;23.13;;
21505;SDS011;10914;48.886;9.394;2023-04-29T11:22:25;24.83;;;23.33;;
21505;SDS011;10914;48.886;9.394;2023-04-29T11:24:52;23.75;;;22.35;;
21505;SDS011;10914;48.886;9.394;2023-04-29T11:27:18;22.90;;;21.60;;
21505;SDS011;10914;48.886;9.394;2023-04-29T11:29:48;22.80;;;21.48;;
21505;SDS011;10914;48.886;9.394;2023-04-29T11:32:13;23.27;;;21.77;;
21505;SDS011;10914;48.886;9.394;2023-04-29T11:34:39;22.25;;;20.95;;
21505;SDS011;10914;48.886;9.394;2023-04-29T11:37:04;23.48;;;21.98;;
21505;SDS011;10914;48.886;9.394;2023-04-29T11:39:32;24.80;;;23.27;;
21505;SDS011;10914;48.886;9.394;2023-04-29T11:42:07;23.27;;;21.77;;
21505;SDS011;10914;48.886;9.394;2023-04-29T11:44:33;24.52;;;23.10;;
21505;SDS011;10914;48.886;9.394;2023-04-29T11:47:05;23.52;;;22.13;;
21505;SDS011;10914;48.886;9.394;2023-04-29T11:49:31;23.08;;;21.67;;
21505;SDS011;10914;48.886;9.394;2023-04-29T11:51:56;23.52;;;22.02;;
21505;SDS011;10914;48.886;9.394;2023-04-29T11:54:23;26.00;;;24.13;;
21505;SDS011;10914;48.886;9.394;2023-04-29T11:56:49;23.35;;;21.95;;
21505;SDS011;10914;48.886;9.394;2023-04-29T11:59:17;23.45;;;21.90;;
21505;SDS011;10914;48.886;9.394;2023-04-29T12:01:43;23.70;;;22.05;;
21505;SDS011;10914;48.886;9.394;2023-04-29T12:04:08;23.20;;;21.80;;
21505;SDS011;10914;48.886;9.394;2023-04-29T12:06:34;25.08;;;23.58;;
21505;SDS011;10914;48.886;9.394;2023-04-29T12:08:59;23.88;;;22.25;;
21505;SDS011;10914;48.886;9.394;2023-04-29T12:11:25;23.10;;;21.80;;
21505;SDS011;10914;48.886;9.394;2023-04-29T12:13:51;22.85;;;21.55;;
21505;SDS011;10914;48.886;9.394;2023-04-29T12:16:16;25.15;;;23.67;;
21505;SDS011;10914;48.886;9.394;2023-04-29T12:18:41;25.50;;;24.00;;
21505;SDS011;10914;48.886;9.394;2023-04-29T12:21:07;23.45;;;22.15;;
21505;SDS011;10914;48.886;9.394;2023-04-29T12:23:32;24.15;;;22.63;;
21505;SDS011;10914;48.886;9.394;2023-04-29T12:25:59;24.05;;;22.55;;
21505;SDS011;10914;48.886;9.394;2023-04-29T12:28:26;24.13;;;22.63;;
21505;SDS011;10914;48.886;9.394;2023-04-29T12:30:51;25.05;;;23.42;;
21505;SDS011;10914;48.886;9.394;2023-04-29T12:33:21;25.13;;;23.52;;
21505;SDS011;10914;48.886;9.394;2023-04-29T12:35:47;25.42;;;23.92;;
21505;SDS011;10914;48.886;9.394;2023-04-29T12:38:20;24.92;;;23.33;;
21505;SDS011;10914;48.886;9.394;2023-04-29T12:40:45;24.20;;;22.80;;
21505;SDS011;10914;48.886;9.394;2023-04-29T12:43:10;25.55;;;24.05;;
21505;SDS011;10914;48.886;9.394;2023-04-29T12:45:37;26.98;;;25.25;;
21505;SDS011;10914;48.886;9.394;2023-04-29T12:48:02;25.77;;;24.10;;
21505;SDS011;10914;48.886;9.394;2023-04-29T12:50:35;24.55;;;23.05;;
21505;SDS011;10914;48.886;9.394;2023-04-29T12:53:01;25.70;;;24.02;;
21505;SDS011;10914;48.886;9.394;2023-04-29T12:55:27;22.92;;;21.52;;
21505;SDS011;10914;48.886;9.394;2023-04-29T12:57:53;24.38;;;22.75;;
21505;SDS011;10914;48.886;9.394;2023-04-29T13:00:18;24.13;;;22.63;;
21505;SDS011;10914;48.886;9.394;2023-04-29T13:02:44;24.13;;;22.40;;
21505;SDS011;10914;48.886;9.394;2023-04-29T13:05:10;26.42;;;24.63;;
21505;SDS011;10914;48.886;9.394;2023-04-29T13:07:36;25.90;;;24.08;;
21505;SDS011;10914;48.886;9.394;2023-04-29T13:10:02;25.08;;;23.48;;
21505;SDS011;10914;48.886;9.394;2023-04-29T13:12:27;26.00;;;24.25;;
21505;SDS011;10914;48.886;9.394;2023-04-29T13:14:53;27.77;;;25.98;;
21505;SDS011;10914;48.886;9.394;2023-04-29T13:17:19;30.27;;;28.40;;
21505;SDS011;10914;48.886;9.394;2023-04-29T13:19:44;29.10;;;26.85;;
21505;SDS011;10914;48.886;9.394;2023-04-29T13:22:09;25.67;;;23.97;;
21505;SDS011;10914;48.886;9.394;2023-04-29T13:24:35;24.38;;;22.77;;
21505;SDS011;10914;48.886;9.394;2023-04-29T13:27:00;26.20;;;24.50;;
21505;SDS011;10914;48.886;9.394;2023-04-29T13:29:27;24.90;;;23.40;;
21505;SDS011;10914;48.886;9.394;2023-04-29T13:31:52;27.30;;;25.30;;
21505;SDS011;10914;48.886;9.394;2023-04-29T13:34:17;26.70;;;25.00;;
21505;SDS011;10914;48.886;9.394;2023-04-29T13:36:43;30.67;;;28.88;;
21505;SDS011;10914;48.886;9.394;2023-04-29T13:39:08;26.92;;;25.15;;
21505;SDS011;10914;48.886;9.394;2023-04-29T13:41:34;28.85;;;26.92;;
21505;SDS011;10914;48.886;9.394;2023-04-29T13:43:59;29.33;;;27.42;;
21505;SDS011;10914;48.886;9.394;2023-04-29T13:46:24;29.02;;;27.23;;
21505;SDS011;10914;48.886;9.394;2023-04-29T13:48:50;29.20;;;27.27;;
21505;SDS011;10914;48.886;9.394;2023-04-29T13:51:15;28.65;;;26.75;;
21505;SDS011;10914;48.886;9.394;2023-04-29T13:53:40;29.23;;;27.25;;
21505;SDS011;10914;48.886;9.394;2023-04-29T13:56:05;28.83;;;27.00;;
21505;SDS011;10914;48.886;9.394;2023-04-29T13:58:30;32.20;;;29.80;;
21505;SDS011;10914;48.886;9.394;2023-04-29T14:00:56;28.73;;;26.83;;
21505;SDS011;10914;48.886;9.394;2023-04-29T14:03:21;26.63;;;24.83;;
21505;SDS011;10914;48.886;9.394;2023-04-29T14:05:46;25.58;;;23.85;;
21505;SDS011;10914;48.886;9.394;2023-04-29T14:08:11;26.70;;;25.10;;
21505;SDS011;10914;48.886;9.394;2023-04-29T14:10:38;28.85;;;27.05;;
21505;SDS011;10914;48.886;9.394;2023-04-29T14:13:03;27.67;;;25.87;;
21505;SDS011;10914;48.886;9.394;2023-04-29T14:15:29;27.13;;;25.40;;
21505;SDS011;10914;48.886;9.394;2023-04-29T14:17:54;28.02;;;26.17;;
21505;SDS011;10914;48.886;9.394;2023-04-29T14:20:19;26.05;;;24.45;;
21505;SDS011;10914;48.886;9.394;2023-04-29T14:22:44;26.20;;;24.43;;
21505;SDS011;10914;48.886;9.394;2023-04-29T14:25:10;27.33;;;25.42;;
21505;SDS011;10914;48.886;9.394;2023-04-29T14:27:36;26.00;;;24.30;;
21505;SDS011;10914;48.886;9.394;2023-04-29T14:30:02;25.85;;;24.15;;
21505;SDS011;10914;48.886;9.394;2023-04-29T14:32:28;26.40;;;24.70;;
21505;SDS011;10914;48.886;9.394;2023-04-29T14:34:53;25.33;;;23.70;;
21505;SDS011;10914;48.886;9.394;2023-04-29T14:37:19;29.52;;;27.50;;